sensor_id;sensor_type;location;lat;lon;timestamp;pressure;altitude;pressure_sealevel;temperature;humidity
49827;BME280;35715;51.570;6.036;2023-11-19T00:02:13;100769.84;;;12.90;100.00
49827;BME280;35715;51.570;6.036;2023-11-19T00:04:39;100776.03;;;12.77;100.00
49827;BME280;35715;51.570;6.036;2023-11-19T00:07:05;100766.03;;;12.68;100.00
49827;BME280;35715;51.570;6.036;2023-11-19T00:09:32;100755.69;;;12.68;100.00
49827;BME280;35715;51.570;6.036;2023-11-19T00:11:58;100741.84;;;12.68;100.00
49827;BME280;35715;51.570;6.036;2023-11-19T00:14:25;100747.03;;;12.68;100.00
49827;BME280;35715;51.570;6.036;2023-11-19T00:16:50;100754.97;;;12.71;100.00
49827;BME280;35715;51.570;6.036;2023-11-19T00:19:19;100748.19;;;12.73;100.00
49827;BME280;35715;51.570;6.036;2023-11-19T00:21:44;100740.50;;;12.74;100.00
49827;BME280;35715;51.570;6.036;2023-11-19T00:24:11;100740.41;;;12.73;100.00
49827;BME280;35715;51.570;6.036;2023-11-19T00:26:37;100737.91;;;12.74;100.00
49827;BME280;35715;51.570;6.036;2023-11-19T00:29:03;100731.16;;;12.76;100.00
49827;BME280;35715;51.570;6.036;2023-11-19T00:31:29;100728.47;;;12.75;100.00
49827;BME280;35715;51.570;6.036;2023-11-19T00:33:54;100722.47;;;12.76;100.00
49827;BME280;35715;51.570;6.036;2023-11-19T00:36:19;100711.31;;;12.77;100.00
49827;BME280;35715;51.570;6.036;2023-11-19T00:38:45;100711.31;;;12.77;100.00
49827;BME280;35715;51.570;6.036;2023-11-19T00:41:11;100710.59;;;12.80;100.00
49827;BME280;35715;51.570;6.036;2023-11-19T00:43:36;100697.66;;;12.80;100.00
49827;BME280;35715;51.570;6.036;2023-11-19T00:46:02;100692.56;;;12.81;100.00
49827;BME280;35715;51.570;6.036;2023-11-19T00:48:28;100690.78;;;12.80;100.00
49827;BME280;35715;51.570;6.036;2023-11-19T00:50:53;100692.56;;;12.81;100.00
49827;BME280;35715;51.570;6.036;2023-11-19T00:53:19;100701.28;;;12.83;100.00
49827;BME280;35715;51.570;6.036;2023-11-19T00:55:44;100699.59;;;12.84;100.00
49827;BME280;35715;51.570;6.036;2023-11-19T00:58:09;100706.56;;;12.85;100.00
49827;BME280;35715;51.570;6.036;2023-11-19T01:00:35;100696.28;;;12.86;100.00
49827;BME280;35715;51.570;6.036;2023-11-19T01:03:00;100707.63;;;12.88;100.00
49827;BME280;35715;51.570;6.036;2023-11-19T01:05:26;100707.81;;;12.91;100.00
49827;BME280;35715;51.570;6.036;2023-11-19T01:07:52;100698.34;;;12.92;100.00
49827;BME280;35715;51.570;6.036;2023-11-19T01:10:19;100702.72;;;12.93;100.00
49827;BME280;35715;51.570;6.036;2023-11-19T01:12:44;100706.19;;;12.93;100.00
49827;BME280;35715;51.570;6.036;2023-11-19T01:15:09;100710.56;;;12.94;100.00
49827;BME280;35715;51.570;6.036;2023-11-19T01:17:36;100714.94;;;12.95;100.00
49827;BME280;35715;51.570;6.036;2023-11-19T01:20:11;100712.34;;;12.95;100.00
49827;BME280;35715;51.570;6.036;2023-11-19T01:22:38;100715.09;;;12.99;100.00
49827;BME280;35715;51.570;6.036;2023-11-19T01:25:04;100719.47;;;13.00;100.00
49827;BME280;35715;51.570;6.036;2023-11-19T01:27:30;100716.09;;;13.01;100.00
49827;BME280;35715;51.570;6.036;2023-11-19T01:29:56;100717.06;;;13.03;100.00
49827;BME280;35715;51.570;6.036;2023-11-19T01:32:21;100711.97;;;13.04;100.00
49827;BME280;35715;51.570;6.036;2023-11-19T01:34:55;100712.84;;;13.05;100.00
49827;BME280;35715;51.570;6.036;2023-11-19T01:37:21;100706.06;;;13.07;100.00
49827;BME280;35715;51.570;6.036;2023-11-19T01:39:46;100702.66;;;13.08;100.00
49827;BME280;35715;51.570;6.036;2023-11-19T01:42:41;100697.31;;;13.05;100.00
49827;BME280;35715;51.570;6.036;2023-11-19T01:45:07;100680.88;;;13.04;100.00
49827;BME280;35715;51.570;6.036;2023-11-19T01:47:34;100679.16;;;13.05;100.00
49827;BME280;35715;51.570;6.036;2023-11-19T01:50:01;100677.59;;;13.07;100.00
49827;BME280;35715;51.570;6.036;2023-11-19T01:52:27;100679.34;;;13.08;100.00
49827;BME280;35715;51.570;6.036;2023-11-19T01:54:53;100686.31;;;13.09;100.00
49827;BME280;35715;51.570;6.036;2023-11-19T01:57:19;100685.53;;;13.10;100.00
49827;BME280;35715;51.570;6.036;2023-11-19T01:59:46;100688.03;;;13.08;100.00
49827;BME280;35715;51.570;6.036;2023-11-19T02:02:14;100676.75;;;13.08;100.00
49827;BME280;35715;51.570;6.036;2023-11-19T02:04:41;100689.69;;;13.08;100.00
49827;BME280;35715;51.570;6.036;2023-11-19T02:07:07;100681.13;;;13.09;100.00
49827;BME280;35715;51.570;6.036;2023-11-19T02:09:32;100681.84;;;13.06;100.00
49827;BME280;35715;51.570;6.036;2023-11-19T02:11:58;100671.31;;;13.03;100.00
49827;BME280;35715;51.570;6.036;2023-11-19T02:14:25;100668.56;;;13.00;100.00
49827;BME280;35715;51.570;6.036;2023-11-19T02:16:53;100660.47;;;12.94;100.00
49827;BME280;35715;51.570;6.036;2023-11-19T02:19:20;100657.63;;;12.89;100.00
49827;BME280;35715;51.570;6.036;2023-11-19T02:21:45;100664.16;;;12.83;100.00
49827;BME280;35715;51.570;6.036;2023-11-19T02:24:11;100673.44;;;12.79;100.00
49827;BME280;35715;51.570;6.036;2023-11-19T02:27:07;100665.16;;;12.70;100.00
49827;BME280;35715;51.570;6.036;2023-11-19T02:29:35;100657.94;;;12.64;100.00
49827;BME280;35715;51.570;6.036;2023-11-19T02:32:01;100662.06;;;12.60;100.00
49827;BME280;35715;51.570;6.036;2023-11-19T02:34:27;100662.84;;;12.59;100.00
49827;BME280;35715;51.570;6.036;2023-11-19T02:36:52;100657.59;;;12.58;100.00
49827;BME280;35715;51.570;6.036;2023-11-19T02:39:18;100662.78;;;12.58;100.00
49827;BME280;35715;51.570;6.036;2023-11-19T02:41:47;100663.03;;;12.63;100.00
49827;BME280;35715;51.570;6.036;2023-11-19T02:44:12;100663.22;;;12.66;100.00
49827;BME280;35715;51.570;6.036;2023-11-19T02:46:38;100656.44;;;12.68;100.00
49827;BME280;35715;51.570;6.036;2023-11-19T02:49:07;100652.69;;;12.63;100.00
49827;BME280;35715;51.570;6.036;2023-11-19T02:51:32;100667.25;;;12.60;100.00
49827;BME280;35715;51.570;6.036;2023-11-19T02:53:58;100671.00;;;12.66;100.00
49827;BME280;35715;51.570;6.036;2023-11-19T02:56:23;100665.91;;;12.67;100.00
49827;BME280;35715;51.570;6.036;2023-11-19T02:59:15;100638.41;;;12.69;100.00
49827;BME280;35715;51.570;6.036;2023-11-19T03:01:52;100652.47;;;12.74;100.00
49827;BME280;35715;51.570;6.036;2023-11-19T03:04:17;100656.06;;;12.76;100.00
49827;BME280;35715;51.570;6.036;2023-11-19T03:06:45;100662.22;;;12.78;100.00
49827;BME280;35715;51.570;6.036;2023-11-19T03:09:11;100660.59;;;12.81;100.00
49827;BME280;35715;51.570;6.036;2023-11-19T03:11:37;100669.25;;;12.81;100.00
49827;BME280;35715;51.570;6.036;2023-11-19T03:14:02;100665.84;;;12.82;100.00
49827;BME280;35715;51.570;6.036;2023-11-19T03:16:28;100670.16;;;12.82;100.00
49827;BME280;35715;51.570;6.036;2023-11-19T03:18:54;100674.59;;;12.84;100.00
49827;BME280;35715;51.570;6.036;2023-11-19T03:21:27;100664.16;;;12.83;100.00
49827;BME280;35715;51.570;6.036;2023-11-19T03:23:52;100665.06;;;12.83;100.00
49827;BME280;35715;51.570;6.036;2023-11-19T03:26:18;100658.00;;;12.81;100.00
49827;BME280;35715;51.570;6.036;2023-11-19T03:28:43;100651.59;;;12.74;100.00
49827;BME280;35715;51.570;6.036;2023-11-19T03:31:11;100659.81;;;12.67;100.00
49827;BME280;35715;51.570;6.036;2023-11-19T03:33:37;100670.72;;;12.61;100.00
49827;BME280;35715;51.570;6.036;2023-11-19T03:36:05;100667.25;;;12.60;100.00
49827;BME280;35715;51.570;6.036;2023-11-19T03:38:31;100669.56;;;12.56;100.00
49827;BME280;35715;51.570;6.036;2023-11-19T03:40:56;100667.50;;;12.50;100.00
49827;BME280;35715;51.570;6.036;2023-11-19T03:43:21;100656.81;;;12.44;100.00
49827;BME280;35715;51.570;6.036;2023-11-19T03:45:47;100663.25;;;12.36;100.00
49827;BME280;35715;51.570;6.036;2023-11-19T03:48:13;100658.63;;;12.30;100.00
49827;BME280;35715;51.570;6.036;2023-11-19T03:50:41;100659.06;;;12.23;100.00
49827;BME280;35715;51.570;6.036;2023-11-19T03:53:09;100658.88;;;12.20;100.00
49827;BME280;35715;51.570;6.036;2023-11-19T03:55:34;100651.78;;;12.16;100.00
49827;BME280;35715;51.570;6.036;2023-11-19T03:58:00;100647.91;;;12.09;100.00
49827;BME280;35715;51.570;6.036;2023-11-19T04:00:25;100660.69;;;12.06;100.00
49827;BME280;35715;51.570;6.036;2023-11-19T04:02:50;100652.81;;;12.04;100.00
49827;BME280;35715;51.570;6.036;2023-11-19T04:05:16;100647.50;;;12.63;100.00
49827;BME280;35715;51.570;6.036;2023-11-19T04:07:43;100663.13;;;12.64;100.00
49827;BME280;35715;51.570;6.036;2023-11-19T04:10:09;100658.81;;;12.80;100.00
49827;BME280;35715;51.570;6.036;2023-11-19T04:12:35;100657.88;;;12.94;100.00
49827;BME280;35715;51.570;6.036;2023-11-19T04:15:00;100666.63;;;12.96;100.00
49827;BME280;35715;51.570;6.036;2023-11-19T04:17:26;100664.00;;;13.27;100.00
49827;BME280;35715;51.570;6.036;2023-11-19T04:19:54;100663.00;;;12.16;100.00
49827;BME280;35715;51.570;6.036;2023-11-19T04:22:19;100669.97;;;12.02;100.00
49827;BME280;35715;51.570;6.036;2023-11-19T04:24:44;100670.41;;;12.25;100.00
49827;BME280;35715;51.570;6.036;2023-11-19T04:27:10;100674.56;;;12.08;100.00
49827;BME280;35715;51.570;6.036;2023-11-19T04:29:36;100673.88;;;12.40;100.00
49827;BME280;35715;51.570;6.036;2023-11-19T04:32:01;100677.09;;;12.36;100.00
49827;BME280;35715;51.570;6.036;2023-11-19T04:34:27;100680.09;;;12.44;100.00
49827;BME280;35715;51.570;6.036;2023-11-19T04:36:55;100679.59;;;12.35;100.00
49827;BME280;35715;51.570;6.036;2023-11-19T04:39:20;100678.69;;;12.19;100.00
49827;BME280;35715;51.570;6.036;2023-11-19T04:41:50;100672.25;;;12.28;100.00
49827;BME280;35715;51.570;6.036;2023-11-19T04:44:16;100686.13;;;12.28;100.00
49827;BME280;35715;51.570;6.036;2023-11-19T04:46:42;100691.09;;;12.40;100.00
49827;BME280;35715;51.570;6.036;2023-11-19T04:49:10;100682.25;;;12.21;100.00
49827;BME280;35715;51.570;6.036;2023-11-19T04:51:42;100690.09;;;12.23;100.00
49827;BME280;35715;51.570;6.036;2023-11-19T04:54:08;100685.63;;;12.35;100.00
49827;BME280;35715;51.570;6.036;2023-11-19T04:56:37;100693.03;;;12.44;100.00
49827;BME280;35715;51.570;6.036;2023-11-19T04:59:03;100698.25;;;12.14;100.00
49827;BME280;35715;51.570;6.036;2023-11-19T05:01:31;100695.81;;;12.02;100.00
49827;BME280;35715;51.570;6.036;2023-11-19T05:03:56;100701.19;;;11.92;100.00
49827;BME280;35715;51.570;6.036;2023-11-19T05:06:26;100693.16;;;11.87;100.00
49827;BME280;35715;51.570;6.036;2023-11-19T05:08:52;100691.09;;;11.82;100.00
49827;BME280;35715;51.570;6.036;2023-11-19T05:11:17;100688.25;;;11.77;100.00
49827;BME280;35715;51.570;6.036;2023-11-19T05:13:45;100687.09;;;11.72;100.00
49827;BME280;35715;51.570;6.036;2023-11-19T05:16:11;100691.25;;;11.70;100.00
49827;BME280;35715;51.570;6.036;2023-11-19T05:18:39;100694.66;;;11.69;100.00
49827;BME280;35715;51.570;6.036;2023-11-19T05:21:05;100697.44;;;11.72;100.00
49827;BME280;35715;51.570;6.036;2023-11-19T05:23:30;100693.84;;;11.70;100.00
49827;BME280;35715;51.570;6.036;2023-11-19T05:25:56;100700.63;;;11.68;100.00
49827;BME280;35715;51.570;6.036;2023-11-19T05:28:23;100697.25;;;11.69;100.00
49827;BME280;35715;51.570;6.036;2023-11-19T05:30:49;100698.72;;;11.65;100.00
49827;BME280;35715;51.570;6.036;2023-11-19T05:33:15;100696.06;;;11.64;100.00
49827;BME280;35715;51.570;6.036;2023-11-19T05:35:40;100690.69;;;11.61;100.00
49827;BME280;35715;51.570;6.036;2023-11-19T05:38:06;100704.81;;;11.66;100.00
49827;BME280;35715;51.570;6.036;2023-11-19T05:40:31;100702.72;;;11.60;100.00
49827;BME280;35715;51.570;6.036;2023-11-19T05:42:56;100701.63;;;11.57;100.00
49827;BME280;35715;51.570;6.036;2023-11-19T05:45:22;100702.38;;;11.54;100.00
49827;BME280;35715;51.570;6.036;2023-11-19T05:47:50;100696.19;;;11.52;100.00
49827;BME280;35715;51.570;6.036;2023-11-19T05:50:16;100690.94;;;11.50;100.00
49827;BME280;35715;51.570;6.036;2023-11-19T05:52:43;100706.34;;;11.49;100.00
49827;BME280;35715;51.570;6.036;2023-11-19T05:55:08;100711.31;;;11.46;100.00
49827;BME280;35715;51.570;6.036;2023-11-19T05:57:36;100698.59;;;11.49;100.00
49827;BME280;35715;51.570;6.036;2023-11-19T06:00:02;100708.91;;;11.49;100.00
49827;BME280;35715;51.570;6.036;2023-11-19T06:02:34;100710.44;;;11.45;100.00
49827;BME280;35715;51.570;6.036;2023-11-19T06:05:00;100708.81;;;11.47;100.00
49827;BME280;35715;51.570;6.036;2023-11-19T06:07:26;100717.41;;;11.46;100.00
49827;BME280;35715;51.570;6.036;2023-11-19T06:09:51;100712.31;;;11.48;100.00
49827;BME280;35715;51.570;6.036;2023-11-19T06:12:17;100708.03;;;11.48;100.00
49827;BME280;35715;51.570;6.036;2023-11-19T06:14:42;100712.59;;;11.52;100.00
49827;BME280;35715;51.570;6.036;2023-11-19T06:17:07;100716.06;;;11.53;100.00
49827;BME280;35715;51.570;6.036;2023-11-19T06:19:34;100699.88;;;11.56;100.00
49827;BME280;35715;51.570;6.036;2023-11-19T06:21:59;100713.47;;;11.53;100.00
49827;BME280;35715;51.570;6.036;2023-11-19T06:24:25;100720.34;;;11.52;100.00
49827;BME280;35715;51.570;6.036;2023-11-19T06:26:50;100718.28;;;11.47;100.00
49827;BME280;35715;51.570;6.036;2023-11-19T06:29:15;100724.31;;;11.47;100.00
49827;BME280;35715;51.570;6.036;2023-11-19T06:31:44;100717.41;;;11.46;100.00
49827;BME280;35715;51.570;6.036;2023-11-19T06:34:10;100709.28;;;11.40;100.00
49827;BME280;35715;51.570;6.036;2023-11-19T06:36:36;100709.97;;;11.94;100.00
49827;BME280;35715;51.570;6.036;2023-11-19T06:39:02;100705.44;;;12.35;100.00
49827;BME280;35715;51.570;6.036;2023-11-19T06:41:29;100705.00;;;12.27;100.00
49827;BME280;35715;51.570;6.036;2023-11-19T06:43:54;100707.16;;;12.19;100.00
49827;BME280;35715;51.570;6.036;2023-11-19T06:46:20;100708.22;;;12.53;100.00
49827;BME280;35715;51.570;6.036;2023-11-19T06:48:45;100712.69;;;12.55;100.00
49827;BME280;35715;51.570;6.036;2023-11-19T06:51:12;100699.56;;;12.52;100.00
49827;BME280;35715;51.570;6.036;2023-11-19T06:53:37;100704.56;;;12.49;100.00
49827;BME280;35715;51.570;6.036;2023-11-19T06:56:05;100703.00;;;11.65;100.00
49827;BME280;35715;51.570;6.036;2023-11-19T06:58:32;100714.63;;;11.43;100.00
49827;BME280;35715;51.570;6.036;2023-11-19T07:00:59;100715.41;;;11.42;100.00
49827;BME280;35715;51.570;6.036;2023-11-19T07:03:25;100719.06;;;11.46;100.00
49827;BME280;35715;51.570;6.036;2023-11-19T07:05:50;100728.53;;;11.32;100.00
49827;BME280;35715;51.570;6.036;2023-11-19T07:08:15;100733.31;;;11.26;100.00
49827;BME280;35715;51.570;6.036;2023-11-19T07:10:41;100745.66;;;11.30;100.00
49827;BME280;35715;51.570;6.036;2023-11-19T07:13:06;100740.28;;;11.27;100.00
49827;BME280;35715;51.570;6.036;2023-11-19T07:15:31;100741.16;;;11.41;100.00
49827;BME280;35715;51.570;6.036;2023-11-19T07:17:58;100756.56;;;11.39;100.00
49827;BME280;35715;51.570;6.036;2023-11-19T07:20:26;100760.13;;;11.41;100.00
49827;BME280;35715;51.570;6.036;2023-11-19T07:22:53;100749.91;;;11.29;100.00
49827;BME280;35715;51.570;6.036;2023-11-19T07:25:20;100756.84;;;11.30;100.00
49827;BME280;35715;51.570;6.036;2023-11-19T07:27:45;100772.06;;;11.39;100.00
49827;BME280;35715;51.570;6.036;2023-11-19T07:30:12;100768.50;;;11.37;100.00
49827;BME280;35715;51.570;6.036;2023-11-19T07:32:37;100769.06;;;11.46;100.00
49827;BME280;35715;51.570;6.036;2023-11-19T07:35:04;100761.13;;;11.43;100.00
49827;BME280;35715;51.570;6.036;2023-11-19T07:37:31;100767.97;;;11.43;100.00
49827;BME280;35715;51.570;6.036;2023-11-19T07:39:56;100773.22;;;11.44;100.00
49827;BME280;35715;51.570;6.036;2023-11-19T07:42:21;100773.41;;;11.47;100.00
49827;BME280;35715;51.570;6.036;2023-11-19T07:44:48;100777.88;;;11.50;100.00
49827;BME280;35715;51.570;6.036;2023-11-19T07:47:13;100779.50;;;11.48;100.00
49827;BME280;35715;51.570;6.036;2023-11-19T07:49:41;100784.22;;;11.55;100.00
49827;BME280;35715;51.570;6.036;2023-11-19T07:52:09;100782.75;;;11.59;100.00
49827;BME280;35715;51.570;6.036;2023-11-19T07:54:34;100788.91;;;11.61;100.00
49827;BME280;35715;51.570;6.036;2023-11-19T07:56:59;100775.19;;;11.62;100.00
49827;BME280;35715;51.570;6.036;2023-11-19T07:59:25;100763.97;;;11.61;100.00
49827;BME280;35715;51.570;6.036;2023-11-19T08:01:50;100773.34;;;11.74;100.00
49827;BME280;35715;51.570;6.036;2023-11-19T08:04:17;100775.72;;;11.84;100.00
49827;BME280;35715;51.570;6.036;2023-11-19T08:06:42;100772.84;;;11.93;100.00
49827;BME280;35715;51.570;6.036;2023-11-19T08:09:07;100768.56;;;11.94;100.00
49827;BME280;35715;51.570;6.036;2023-11-19T08:11:39;100785.25;;;11.85;100.00
49827;BME280;35715;51.570;6.036;2023-11-19T08:14:04;100778.91;;;11.80;100.00
49827;BME280;35715;51.570;6.036;2023-11-19T08:16:30;100778.22;;;11.83;100.00
49827;BME280;35715;51.570;6.036;2023-11-19T08:18:55;100772.34;;;11.85;100.00
49827;BME280;35715;51.570;6.036;2023-11-19T08:21:23;100777.69;;;11.88;100.00
49827;BME280;35715;51.570;6.036;2023-11-19T08:23:48;100786.75;;;11.95;100.00
49827;BME280;35715;51.570;6.036;2023-11-19T08:26:15;100792.97;;;11.99;100.00
49827;BME280;35715;51.570;6.036;2023-11-19T08:28:40;100785.41;;;12.02;100.00
49827;BME280;35715;51.570;6.036;2023-11-19T08:31:05;100791.78;;;12.07;100.00
49827;BME280;35715;51.570;6.036;2023-11-19T08:33:32;100790.34;;;12.12;100.00
49827;BME280;35715;51.570;6.036;2023-11-19T08:35:57;100785.53;;;12.18;100.00
49827;BME280;35715;51.570;6.036;2023-11-19T08:38:24;100784.34;;;12.41;100.00
49827;BME280;35715;51.570;6.036;2023-11-19T08:40:49;100788.44;;;12.38;100.00
49827;BME280;35715;51.570;6.036;2023-11-19T08:43:14;100798.63;;;12.50;100.00
49827;BME280;35715;51.570;6.036;2023-11-19T08:45:41;100790.50;;;12.43;100.00
49827;BME280;35715;51.570;6.036;2023-11-19T08:48:06;100786.31;;;12.60;100.00
49827;BME280;35715;51.570;6.036;2023-11-19T08:50:32;100793.72;;;12.54;100.00
49827;BME280;35715;51.570;6.036;2023-11-19T08:52:57;100788.09;;;12.62;100.00
49827;BME280;35715;51.570;6.036;2023-11-19T08:55:22;100792.28;;;12.59;100.00
49827;BME280;35715;51.570;6.036;2023-11-19T08:57:48;100801.31;;;12.66;100.00
49827;BME280;35715;51.570;6.036;2023-11-19T09:00:13;100791.13;;;12.84;100.00
49827;BME280;35715;51.570;6.036;2023-11-19T09:02:41;100802.47;;;12.86;100.00
49827;BME280;35715;51.570;6.036;2023-11-19T09:05:08;100800.31;;;12.94;100.00
49827;BME280;35715;51.570;6.036;2023-11-19T09:07:33;100801.16;;;13.09;100.00
49827;BME280;35715;51.570;6.036;2023-11-19T09:10:05;100804.84;;;13.13;100.00
49827;BME280;35715;51.570;6.036;2023-11-19T09:12:31;100802.69;;;13.21;100.00
49827;BME280;35715;51.570;6.036;2023-11-19T09:14:56;100793.19;;;13.21;100.00
49827;BME280;35715;51.570;6.036;2023-11-19T09:17:24;100792.31;;;13.21;100.00
49827;BME280;35715;51.570;6.036;2023-11-19T09:19:50;100803.03;;;13.27;100.00
49827;BME280;35715;51.570;6.036;2023-11-19T09:22:15;100801.97;;;13.23;100.00
49827;BME280;35715;51.570;6.036;2023-11-19T09:24:41;100808.56;;;13.33;100.00
49827;BME280;35715;51.570;6.036;2023-11-19T09:27:07;100806.75;;;13.32;100.00
49827;BME280;35715;51.570;6.036;2023-11-19T09:29:32;100813.31;;;13.40;100.00
49827;BME280;35715;51.570;6.036;2023-11-19T09:31:58;100803.81;;;13.41;100.00
49827;BME280;35715;51.570;6.036;2023-11-19T09:34:23;100801.06;;;13.38;100.00
49827;BME280;35715;51.570;6.036;2023-11-19T09:36:48;100805.97;;;13.33;100.00
49827;BME280;35715;51.570;6.036;2023-11-19T09:39:13;100800.53;;;13.28;100.00
49827;BME280;35715;51.570;6.036;2023-11-19T09:41:46;100800.09;;;13.36;100.00
49827;BME280;35715;51.570;6.036;2023-11-19T09:44:11;100801.34;;;13.59;100.00
49827;BME280;35715;51.570;6.036;2023-11-19T09:46:38;100792.28;;;13.67;100.00
49827;BME280;35715;51.570;6.036;2023-11-19T09:49:06;100794.41;;;13.74;100.00
49827;BME280;35715;51.570;6.036;2023-11-19T09:51:34;100794.56;;;13.77;100.00
49827;BME280;35715;51.570;6.036;2023-11-19T09:54:00;100788.59;;;13.95;99.60
49827;BME280;35715;51.570;6.036;2023-11-19T09:56:27;100785.31;;;14.15;97.72
49827;BME280;35715;51.570;6.036;2023-11-19T09:58:54;100785.75;;;14.23;97.03
49827;BME280;35715;51.570;6.036;2023-11-19T10:01:20;100787.19;;;14.18;96.01
49827;BME280;35715;51.570;6.036;2023-11-19T10:03:47;100791.22;;;14.62;95.29
49827;BME280;35715;51.570;6.036;2023-11-19T10:06:13;100793.13;;;15.19;92.65
49827;BME280;35715;51.570;6.036;2023-11-19T10:08:39;100783.22;;;15.30;91.46
49827;BME280;35715;51.570;6.036;2023-11-19T10:11:06;100787.31;;;15.24;91.19
49827;BME280;35715;51.570;6.036;2023-11-19T10:13:36;100772.63;;;15.25;90.63
49827;BME280;35715;51.570;6.036;2023-11-19T10:18:34;100781.38;;;14.91;91.38
49827;BME280;35715;51.570;6.036;2023-11-19T10:21:05;100779.66;;;14.73;91.66
49827;BME280;35715;51.570;6.036;2023-11-19T10:23:31;100775.44;;;14.59;91.34
49827;BME280;35715;51.570;6.036;2023-11-19T10:26:03;100778.72;;;14.55;90.30
49827;BME280;35715;51.570;6.036;2023-11-19T10:28:41;100773.75;;;14.60;89.12
49827;BME280;35715;51.570;6.036;2023-11-19T10:31:14;100784.22;;;14.78;90.18
49827;BME280;35715;51.570;6.036;2023-11-19T10:33:40;100776.97;;;15.44;87.72
49827;BME280;35715;51.570;6.036;2023-11-19T10:36:06;100770.91;;;15.81;85.75
49827;BME280;35715;51.570;6.036;2023-11-19T10:38:32;100773.16;;;15.55;85.32
49827;BME280;35715;51.570;6.036;2023-11-19T10:40:57;100778.69;;;15.43;86.05
49827;BME280;35715;51.570;6.036;2023-11-19T10:43:23;100771.19;;;15.32;85.98
49827;BME280;35715;51.570;6.036;2023-11-19T10:45:49;100783.22;;;15.48;85.25
49827;BME280;35715;51.570;6.036;2023-11-19T10:48:17;100759.03;;;15.88;83.26
49827;BME280;35715;51.570;6.036;2023-11-19T10:50:44;100763.38;;;17.56;76.99
49827;BME280;35715;51.570;6.036;2023-11-19T10:53:11;100763.69;;;16.76;77.84
49827;BME280;35715;51.570;6.036;2023-11-19T10:55:41;100763.22;;;16.23;80.42
49827;BME280;35715;51.570;6.036;2023-11-19T10:58:10;100769.59;;;15.91;81.64
49827;BME280;35715;51.570;6.036;2023-11-19T11:00:45;100768.47;;;15.66;82.48
49827;BME280;35715;51.570;6.036;2023-11-19T11:03:18;100764.06;;;15.65;81.45
49827;BME280;35715;51.570;6.036;2023-11-19T11:05:49;100761.09;;;16.14;79.46
49827;BME280;35715;51.570;6.036;2023-11-19T11:08:15;100758.63;;;16.18;79.05
49827;BME280;35715;51.570;6.036;2023-11-19T11:10:44;100751.31;;;17.35;76.40
49827;BME280;35715;51.570;6.036;2023-11-19T11:13:10;100740.22;;;18.38;71.30
49827;BME280;35715;51.570;6.036;2023-11-19T11:15:37;100742.44;;;19.04;67.98
49827;BME280;35715;51.570;6.036;2023-11-19T11:18:03;100750.41;;;19.66;64.90
49827;BME280;35715;51.570;6.036;2023-11-19T11:20:30;100744.81;;;18.96;66.00
49827;BME280;35715;51.570;6.036;2023-11-19T11:36:59;100746.63;;;16.02;77.68
49827;BME280;35715;51.570;6.036;2023-11-19T11:39:29;100737.72;;;15.77;78.02
49827;BME280;35715;51.570;6.036;2023-11-19T11:45:07;100737.81;;;15.41;77.73
49827;BME280;35715;51.570;6.036;2023-11-19T11:50:24;100729.16;;;15.22;80.04
49827;BME280;35715;51.570;6.036;2023-11-19T11:57:53;100735.66;;;14.77;83.55
49827;BME280;35715;51.570;6.036;2023-11-19T12:00:39;100738.63;;;14.66;85.21
49827;BME280;35715;51.570;6.036;2023-11-19T12:03:06;100737.53;;;14.79;86.52
49827;BME280;35715;51.570;6.036;2023-11-19T12:05:47;100739.41;;;14.65;87.11
49827;BME280;35715;51.570;6.036;2023-11-19T12:08:13;100742.94;;;14.66;88.07
49827;BME280;35715;51.570;6.036;2023-11-19T12:10:49;100727.50;;;14.69;88.63
49827;BME280;35715;51.570;6.036;2023-11-19T12:13:15;100729.09;;;14.67;88.41
49827;BME280;35715;51.570;6.036;2023-11-19T12:18:26;100736.97;;;15.04;88.28
49827;BME280;35715;51.570;6.036;2023-11-19T12:20:54;100733.59;;;15.81;86.23
49827;BME280;35715;51.570;6.036;2023-11-19T12:23:20;100727.69;;;16.04;84.03
49827;BME280;35715;51.570;6.036;2023-11-19T12:25:45;100730.06;;;16.00;83.11
49827;BME280;35715;51.570;6.036;2023-11-19T12:28:14;100730.19;;;16.22;82.73
49827;BME280;35715;51.570;6.036;2023-11-19T12:30:45;100716.97;;;16.18;82.20
49827;BME280;35715;51.570;6.036;2023-11-19T12:33:14;100720.53;;;16.20;80.90
49827;BME280;35715;51.570;6.036;2023-11-19T12:35:46;100718.06;;;16.23;80.36
49827;BME280;35715;51.570;6.036;2023-11-19T12:38:24;100704.47;;;15.89;79.52
49827;BME280;35715;51.570;6.036;2023-11-19T12:41:09;100719.13;;;15.87;80.60
49827;BME280;35715;51.570;6.036;2023-11-19T12:43:39;100726.22;;;15.72;81.50
49827;BME280;35715;51.570;6.036;2023-11-19T12:48:45;100711.13;;;15.83;82.14
49827;BME280;35715;51.570;6.036;2023-11-19T12:51:11;100719.28;;;15.90;82.28
49827;BME280;35715;51.570;6.036;2023-11-19T12:53:56;100712.69;;;15.59;79.56
49827;BME280;35715;51.570;6.036;2023-11-19T12:56:24;100715.06;;;15.55;82.15
49827;BME280;35715;51.570;6.036;2023-11-19T12:58:49;100709.44;;;15.46;82.31
49827;BME280;35715;51.570;6.036;2023-11-19T13:01:22;100705.25;;;15.30;82.57
49827;BME280;35715;51.570;6.036;2023-11-19T13:03:48;100716.19;;;15.22;83.73
49827;BME280;35715;51.570;6.036;2023-11-19T13:06:16;100714.09;;;15.15;84.08
49827;BME280;35715;51.570;6.036;2023-11-19T13:08:47;100719.63;;;15.03;84.78
49827;BME280;35715;51.570;6.036;2023-11-19T13:11:31;100710.13;;;15.04;84.23
49827;BME280;35715;51.570;6.036;2023-11-19T13:13:58;100709.25;;;15.03;85.05
49827;BME280;35715;51.570;6.036;2023-11-19T13:16:25;100704.72;;;14.99;85.24